createdAt,value
2022-11-27T00:00:43.520Z,84.33
2022-11-27T00:03:10.171Z,83.59
2022-11-27T00:05:36.983Z,82.86
2022-11-27T00:08:03.616Z,83.36
2022-11-27T00:10:30.188Z,83.73
2022-11-27T00:12:56.730Z,82.58
2022-11-27T00:15:23.296Z,84.17
2022-11-27T00:17:49.868Z,83.94
2022-11-27T00:20:16.395Z,83.69
2022-11-27T00:22:42.912Z,83.55
2022-11-27T00:25:09.718Z,83.85
2022-11-27T00:27:36.298Z,82.98
2022-11-27T00:30:02.890Z,84.05
2022-11-27T00:32:29.438Z,83.98
2022-11-27T00:34:55.960Z,83.32
2022-11-27T00:37:25.137Z,83.19
2022-11-27T00:39:51.776Z,83.08
2022-11-27T00:42:18.405Z,84.03
2022-11-27T00:44:44.934Z,83.74
2022-11-27T00:47:11.504Z,83.64
2022-11-27T00:49:38.065Z,84.03
2022-11-27T00:52:04.757Z,83.74
2022-11-27T00:54:31.356Z,83.90
2022-11-27T00:56:57.951Z,83.83
2022-11-27T00:59:24.572Z,84.07
2022-11-27T01:01:51.250Z,83.85
2022-11-27T01:04:18.085Z,84.12
2022-11-27T01:06:45.274Z,84.12
2022-11-27T01:09:14.141Z,84.33
2022-11-27T01:11:41.786Z,83.64
2022-11-27T01:14:13.053Z,83.72
2022-11-27T01:16:42.905Z,83.97
2022-11-27T01:19:12.885Z,84.38
2022-11-27T01:21:42.371Z,83.63
2022-11-27T01:24:13.684Z,85.04
2022-11-27T01:26:42.791Z,84.54
2022-11-27T01:29:11.368Z,83.23
2022-11-27T01:31:40.069Z,83.34
2022-11-27T01:34:14.111Z,84.72
2022-11-27T01:36:42.110Z,84.59
2022-11-27T01:39:17.956Z,83.60
2022-11-27T01:41:47.601Z,84.22
2022-11-27T01:47:16.619Z,84.43
2022-11-27T01:49:48.618Z,83.50
2022-11-27T01:52:29.943Z,83.83
2022-11-27T01:55:04.370Z,83.70
2022-11-27T01:57:36.560Z,84.47
2022-11-27T02:00:05.729Z,83.41
2022-11-27T02:02:32.442Z,84.71
2022-11-27T02:04:59.041Z,84.20
2022-11-27T02:07:25.916Z,83.75
2022-11-27T02:09:52.879Z,84.19
2022-11-27T02:17:51.884Z,82.81
2022-11-27T02:20:48.579Z,84.19
2022-11-27T02:37:13.572Z,83.61
2022-11-27T02:39:56.885Z,83.89
2022-11-27T02:42:27.013Z,84.13
2022-11-27T02:44:57.221Z,84.35
2022-11-27T02:47:24.274Z,84.44
2022-11-27T02:49:52.785Z,84.70
2022-11-27T02:52:20.157Z,83.48
2022-11-27T02:54:50.124Z,84.13
2022-11-27T02:57:20.041Z,83.82
2022-11-27T02:59:46.974Z,83.75
2022-11-27T03:02:20.508Z,83.96
2022-11-27T03:04:52.814Z,83.34
2022-11-27T03:07:30.791Z,83.90
2022-11-27T03:10:03.403Z,84.54
2022-11-27T03:12:30.046Z,82.99
2022-11-27T03:14:56.888Z,83.77
2022-11-27T03:20:15.440Z,83.82
2022-11-27T03:22:43.305Z,83.04
2022-11-27T03:25:09.889Z,83.61
2022-11-27T03:27:43.757Z,84.02
2022-11-27T03:30:11.901Z,83.87
2022-11-27T03:32:38.608Z,84.40
2022-11-27T03:35:09.307Z,84.16
2022-11-27T03:37:36.721Z,84.18
2022-11-27T03:40:04.994Z,84.37
2022-11-27T03:42:47.089Z,84.44
2022-11-27T03:45:27.465Z,83.24
2022-11-27T03:50:45.114Z,83.22
2022-11-27T03:53:37.729Z,84.00
2022-11-27T03:58:54.893Z,83.06
2022-11-27T04:01:24.835Z,83.80
2022-11-27T04:03:51.387Z,83.97
2022-11-27T04:06:18.013Z,84.37
2022-11-27T04:08:46.829Z,83.91
2022-11-27T04:11:14.109Z,83.53
2022-11-27T04:13:40.682Z,84.12
2022-11-27T04:16:07.820Z,84.10
2022-11-27T04:18:34.521Z,84.49
2022-11-27T04:21:01.052Z,83.19
2022-11-27T04:23:27.889Z,84.35
2022-11-27T04:25:54.524Z,84.41
2022-11-27T04:28:21.129Z,83.05
2022-11-27T04:30:52.625Z,84.05
2022-11-27T04:33:19.660Z,83.38
2022-11-27T04:35:46.256Z,83.97
2022-11-27T04:38:12.954Z,83.84
2022-11-27T04:40:39.545Z,83.36
2022-11-27T04:43:06.139Z,83.84
2022-11-27T04:45:32.744Z,83.53
2022-11-27T04:47:59.285Z,83.24
2022-11-27T04:50:25.885Z,83.87
2022-11-27T04:52:52.493Z,82.51
2022-11-27T04:55:19.073Z,82.80
2022-11-27T04:57:45.644Z,82.67
2022-11-27T05:00:12.874Z,83.69
2022-11-27T05:02:40.157Z,82.79
2022-11-27T05:05:07.042Z,82.70
2022-11-27T05:07:33.708Z,82.97
2022-11-27T05:10:00.313Z,83.69
2022-11-27T05:12:26.868Z,82.73
2022-11-27T05:14:53.449Z,83.89
2022-11-27T05:17:20.136Z,83.48
2022-11-27T05:19:46.681Z,83.30
2022-11-27T05:22:13.215Z,82.91
2022-11-27T05:24:39.957Z,83.18
2022-11-27T05:27:06.801Z,82.62
2022-11-27T05:29:33.419Z,82.35
2022-11-27T05:31:59.964Z,83.17
2022-11-27T05:34:26.613Z,83.47
2022-11-27T05:36:53.223Z,82.52
2022-11-27T05:39:19.761Z,82.99
2022-11-27T05:41:46.332Z,83.40
2022-11-27T05:44:15.169Z,83.34
2022-11-27T05:46:43.816Z,82.16
2022-11-27T05:49:15.944Z,82.96
2022-11-27T05:51:49.155Z,83.00
2022-11-27T05:54:17.556Z,82.47
2022-11-27T05:56:44.104Z,82.51
2022-11-27T05:59:11.008Z,82.76
2022-11-27T06:01:37.602Z,82.73
2022-11-27T06:04:04.335Z,82.39
2022-11-27T06:06:31.432Z,83.23
2022-11-27T06:08:57.955Z,82.69
2022-11-27T06:11:24.745Z,82.58
2022-11-27T06:13:51.404Z,82.06
2022-11-27T06:16:21.044Z,83.36
2022-11-27T06:18:50.725Z,82.60
2022-11-27T06:21:17.797Z,82.04
2022-11-27T06:23:45.071Z,82.02
2022-11-27T06:26:16.386Z,82.86
2022-11-27T06:28:43.278Z,83.42
2022-11-27T06:31:17.530Z,82.98
2022-11-27T06:33:46.595Z,83.17
2022-11-27T06:36:13.218Z,83.45
2022-11-27T06:38:39.944Z,82.18
2022-11-27T06:41:11.056Z,82.31
2022-11-27T06:43:38.165Z,83.15
2022-11-27T06:46:06.342Z,82.29
2022-11-27T06:48:34.523Z,82.42
2022-11-27T06:51:03.543Z,82.57
2022-11-27T06:53:30.749Z,83.02
2022-11-27T06:55:57.755Z,82.16
2022-11-27T06:58:30.697Z,83.06
2022-11-27T07:00:59.226Z,83.26
2022-11-27T07:03:26.227Z,82.03
2022-11-27T07:05:53.213Z,82.57
2022-11-27T07:08:20.216Z,81.71
2022-11-27T07:10:46.791Z,82.25
2022-11-27T07:13:13.376Z,82.25
2022-11-27T07:15:39.974Z,81.87
2022-11-27T07:18:06.523Z,81.96
2022-11-27T07:20:33.165Z,82.79
2022-11-27T07:22:59.930Z,82.06
2022-11-27T07:25:26.482Z,81.91
2022-11-27T07:27:53.040Z,81.81
2022-11-27T07:30:19.646Z,82.20
2022-11-27T07:32:46.270Z,82.08
2022-11-27T07:35:13.211Z,81.89
2022-11-27T07:37:39.797Z,82.18
2022-11-27T07:40:07.137Z,82.44
2022-11-27T07:42:38.477Z,81.93
2022-11-27T07:45:07.479Z,82.51
2022-11-27T07:47:34.040Z,81.64
2022-11-27T07:50:00.680Z,82.78
2022-11-27T07:52:27.728Z,81.30
2022-11-27T07:54:54.421Z,81.68
2022-11-27T07:57:21.214Z,82.18
2022-11-27T07:59:47.985Z,81.99
2022-11-27T08:02:15.808Z,81.84
2022-11-27T08:04:42.706Z,82.14
2022-11-27T08:07:09.700Z,81.21
2022-11-27T08:09:40.146Z,81.59
2022-11-27T08:12:07.290Z,81.50
2022-11-27T08:14:33.895Z,82.59
2022-11-27T08:17:00.465Z,82.76
2022-11-27T08:19:27.244Z,81.76
2022-11-27T08:21:53.784Z,81.82
2022-11-27T08:24:20.332Z,82.15
2022-11-27T08:26:46.929Z,82.20
2022-11-27T08:29:13.482Z,81.28
2022-11-27T08:31:40.236Z,82.30
2022-11-27T08:34:06.906Z,81.33
2022-11-27T08:36:33.576Z,81.53
2022-11-27T08:39:00.220Z,81.68
2022-11-27T08:41:26.841Z,81.12
2022-11-27T08:43:53.451Z,82.45
2022-11-27T08:46:20.277Z,82.04
2022-11-27T08:48:46.905Z,82.20
2022-11-27T08:51:15.408Z,81.93
2022-11-27T08:53:44.455Z,81.51
2022-11-27T08:56:17.882Z,82.11
2022-11-27T08:58:45.427Z,82.23
2022-11-27T09:01:16.366Z,82.75
2022-11-27T09:03:43.294Z,82.19
2022-11-27T09:06:12.000Z,82.38
2022-11-27T09:08:39.969Z,81.30
2022-11-27T09:11:07.210Z,82.05
2022-11-27T09:13:36.897Z,82.24
2022-11-27T09:16:05.554Z,82.05
2022-11-27T09:18:32.465Z,81.37
2022-11-27T09:21:01.711Z,81.37
2022-11-27T09:23:29.773Z,82.35
2022-11-27T09:26:00.973Z,81.73
2022-11-27T09:28:31.356Z,82.30
2022-11-27T09:31:00.743Z,81.91
2022-11-27T09:33:29.842Z,81.89
2022-11-27T09:35:57.020Z,82.45
2022-11-27T09:38:24.161Z,81.24
2022-11-27T09:40:53.484Z,82.08
2022-11-27T09:43:27.592Z,81.33
2022-11-27T09:46:00.897Z,81.90
2022-11-27T09:48:38.189Z,81.14
2022-11-27T09:51:13.456Z,81.80
2022-11-27T09:53:48.754Z,80.83
2022-11-27T09:56:18.411Z,81.59
2022-11-27T09:58:56.110Z,81.74
2022-11-27T10:01:35.323Z,81.54
2022-11-27T10:04:09.570Z,82.50
2022-11-27T10:15:13.665Z,81.69
2022-11-27T10:17:48.962Z,82.27
2022-11-27T10:20:28.713Z,80.86
2022-11-27T10:25:45.383Z,81.51
2022-11-27T10:31:17.481Z,81.10
2022-11-27T10:33:53.517Z,81.96
2022-11-27T10:36:39.033Z,82.40
2022-11-27T10:39:12.940Z,82.18
2022-11-27T10:41:52.132Z,81.07
2022-11-27T10:44:42.655Z,81.72
2022-11-27T10:47:14.172Z,82.03
2022-11-27T10:49:42.313Z,81.33
2022-11-27T10:52:15.964Z,81.18
2022-11-27T10:54:45.950Z,81.74
2022-11-27T11:02:46.622Z,81.25
2022-11-27T11:08:15.915Z,81.19
2022-11-27T11:10:51.352Z,80.87
2022-11-27T11:13:22.577Z,81.68
2022-11-27T11:15:53.644Z,81.02
2022-11-27T11:18:25.159Z,81.59
2022-11-27T11:20:54.665Z,80.00
2022-11-27T11:23:27.209Z,80.61
2022-11-27T11:25:57.202Z,80.31
2022-11-27T11:28:24.136Z,80.53
2022-11-27T11:31:05.796Z,81.02
2022-11-27T11:33:38.861Z,80.90
2022-11-27T11:36:11.637Z,80.42
2022-11-27T11:38:42.130Z,80.35
2022-11-27T11:41:09.631Z,79.94
2022-11-27T11:43:37.481Z,81.02
2022-11-27T11:46:17.492Z,80.92
2022-11-27T11:48:54.204Z,79.36
2022-11-27T11:56:52.724Z,79.60
2022-11-27T11:59:39.611Z,79.76
2022-11-27T12:02:28.647Z,80.22
2022-11-27T12:18:56.447Z,79.53
2022-11-27T12:21:30.218Z,79.38
2022-11-27T12:43:27.142Z,78.95
2022-11-27T12:46:02.776Z,78.19
2022-11-27T12:48:52.095Z,78.66
2022-11-27T12:54:05.557Z,77.40
2022-11-27T12:56:39.192Z,78.12
2022-11-27T12:59:27.314Z,77.91
2022-11-27T13:04:46.934Z,78.44
2022-11-27T13:07:20.911Z,77.74
2022-11-27T13:09:59.038Z,78.09
2022-11-27T13:12:32.978Z,78.45
2022-11-27T13:15:04.064Z,77.95
2022-11-27T13:17:37.976Z,78.33
2022-11-27T13:20:11.770Z,78.03
2022-11-27T13:22:38.635Z,77.46
2022-11-27T13:25:05.626Z,77.90
2022-11-27T13:27:36.277Z,78.23
2022-11-27T13:30:06.496Z,77.94
2022-11-27T13:32:38.020Z,76.84
2022-11-27T13:35:18.573Z,77.22
2022-11-27T13:37:49.574Z,77.66
2022-11-27T13:40:23.323Z,76.93
2022-11-27T13:42:55.489Z,77.32
2022-11-27T13:48:05.761Z,76.64
2022-11-27T13:50:43.954Z,77.35
2022-11-27T13:53:10.564Z,77.04
2022-11-27T13:55:51.517Z,76.91
2022-11-27T13:58:29.481Z,76.64
2022-11-27T14:00:56.924Z,77.28
2022-11-27T14:03:28.035Z,77.05
2022-11-27T14:05:56.120Z,76.96
2022-11-27T14:08:33.995Z,76.45
2022-11-27T14:11:08.881Z,77.15
2022-11-27T14:13:40.586Z,77.65
2022-11-27T14:16:28.139Z,77.73
2022-11-27T14:18:58.506Z,76.35
2022-11-27T14:21:40.361Z,77.65
2022-11-27T14:24:34.412Z,77.47
2022-11-27T14:27:01.374Z,76.55
2022-11-27T14:29:30.147Z,76.81
2022-11-27T14:31:59.517Z,76.68
2022-11-27T14:37:03.190Z,76.68
2022-11-27T14:39:33.238Z,76.96
2022-11-27T14:42:01.388Z,77.36
2022-11-27T14:44:28.908Z,76.44
2022-11-27T14:46:57.930Z,77.40
2022-11-27T14:49:27.007Z,76.91
2022-11-27T14:51:54.704Z,76.70
2022-11-27T14:54:26.692Z,77.36
2022-11-27T14:56:53.926Z,76.61
2022-11-27T14:59:22.853Z,77.82
2022-11-27T15:04:47.336Z,77.95
2022-11-27T15:07:18.282Z,77.09
2022-11-27T15:09:49.906Z,77.68
2022-11-27T15:12:20.636Z,76.85
2022-11-27T15:14:57.808Z,77.32
2022-11-27T15:17:28.609Z,76.67
2022-11-27T15:19:57.141Z,77.31
2022-11-27T15:22:24.310Z,77.08
2022-11-27T15:25:08.156Z,77.39
2022-11-27T15:27:50.372Z,77.24
2022-11-27T15:30:18.552Z,78.05
2022-11-27T15:32:51.914Z,77.29
2022-11-27T15:37:58.357Z,76.80
2022-11-27T15:40:30.619Z,77.89
2022-11-27T15:42:57.328Z,77.77
2022-11-27T15:45:28.221Z,77.52
2022-11-27T15:48:00.754Z,77.57
2022-11-27T15:50:29.434Z,77.97
2022-11-27T15:52:56.467Z,77.16
2022-11-27T15:55:23.848Z,77.70
2022-11-27T15:57:50.446Z,77.64
2022-11-27T16:00:17.727Z,77.43
2022-11-27T16:02:44.388Z,76.86
2022-11-27T16:05:11.192Z,77.00
2022-11-27T16:07:37.991Z,77.68
2022-11-27T16:10:05.632Z,77.32
2022-11-27T16:12:32.231Z,77.45
2022-11-27T16:14:58.972Z,77.49
2022-11-27T16:17:25.549Z,77.95
2022-11-27T16:19:52.229Z,78.15
2022-11-27T16:22:19.085Z,78.19
2022-11-27T16:24:45.622Z,77.64
2022-11-27T16:27:12.234Z,77.05
2022-11-27T16:29:38.870Z,77.34
2022-11-27T16:32:06.051Z,77.31
2022-11-27T16:34:32.820Z,77.58
2022-11-27T16:36:59.325Z,77.76
2022-11-27T16:39:25.931Z,77.46
2022-11-27T16:41:52.566Z,78.37
2022-11-27T16:44:19.203Z,77.97
2022-11-27T16:46:45.935Z,77.26
2022-11-27T16:49:12.552Z,78.44
2022-11-27T16:51:40.125Z,78.08
2022-11-27T16:54:10.311Z,77.65
2022-11-27T16:56:38.476Z,77.66
2022-11-27T16:59:10.026Z,78.00
2022-11-27T17:01:37.096Z,77.90
2022-11-27T17:04:07.225Z,77.35
2022-11-27T17:06:34.168Z,78.10
2022-11-27T17:09:02.509Z,78.06
2022-11-27T17:11:33.845Z,78.40
2022-11-27T17:14:02.996Z,77.33
2022-11-27T17:16:29.704Z,78.68
2022-11-27T17:18:56.375Z,78.67
2022-11-27T17:21:27.458Z,78.62
2022-11-27T17:23:56.615Z,78.32
2022-11-27T17:26:24.938Z,77.99
2022-11-27T17:28:55.602Z,78.86
2022-11-27T17:31:25.107Z,78.56
2022-11-27T17:33:53.718Z,78.24
2022-11-27T17:36:20.352Z,78.42
2022-11-27T17:38:46.891Z,77.97
2022-11-27T17:41:14.706Z,78.27
2022-11-27T17:43:41.777Z,78.81
2022-11-27T17:46:10.741Z,78.25
2022-11-27T17:48:38.295Z,78.49
2022-11-27T17:51:05.951Z,78.50
2022-11-27T17:53:32.933Z,78.57
2022-11-27T17:56:04.368Z,78.00
2022-11-27T17:58:31.542Z,78.56
2022-11-27T18:00:58.809Z,78.54
2022-11-27T18:03:25.906Z,78.90
2022-11-27T18:05:52.505Z,78.76
2022-11-27T18:08:19.028Z,78.33
2022-11-27T18:10:45.997Z,78.23
2022-11-27T18:13:12.672Z,78.48
2022-11-27T18:15:39.446Z,78.42
2022-11-27T18:18:07.746Z,78.28
2022-11-27T18:20:34.448Z,78.99
2022-11-27T18:23:01.032Z,78.54
2022-11-27T18:25:27.670Z,78.29
2022-11-27T18:27:54.256Z,79.07
2022-11-27T18:30:21.103Z,79.20
2022-11-27T18:32:47.677Z,78.86
2022-11-27T18:35:14.222Z,78.90
2022-11-27T18:37:40.783Z,79.06
2022-11-27T18:40:09.276Z,78.67
2022-11-27T18:42:35.827Z,78.66
2022-11-27T18:45:02.436Z,78.91
2022-11-27T18:47:29.113Z,78.60
2022-11-27T18:49:58.723Z,78.99
2022-11-27T18:52:25.338Z,79.20
2022-11-27T18:54:51.896Z,78.87
2022-11-27T18:57:19.611Z,78.94
2022-11-27T18:59:46.195Z,79.67
2022-11-27T19:02:13.522Z,79.37
2022-11-27T19:04:40.831Z,79.32
2022-11-27T19:07:07.536Z,79.19
2022-11-27T19:09:34.126Z,79.51
2022-11-27T19:12:00.699Z,79.49
2022-11-27T19:14:27.340Z,79.44
2022-11-27T19:16:53.973Z,80.24
2022-11-27T19:22:09.401Z,79.58
2022-11-27T19:24:37.358Z,79.63
2022-11-27T19:27:03.945Z,79.56
2022-11-27T19:29:30.588Z,79.70
2022-11-27T19:31:58.976Z,79.31
2022-11-27T19:34:25.676Z,80.13
2022-11-27T19:36:52.961Z,79.74
2022-11-27T19:39:19.551Z,79.63
2022-11-27T19:41:46.109Z,79.65
2022-11-27T19:44:13.426Z,80.11
2022-11-27T19:46:41.165Z,80.03
2022-11-27T19:49:12.765Z,79.93
2022-11-27T19:51:39.588Z,79.86
2022-11-27T19:54:10.386Z,79.96
2022-11-27T19:56:39.629Z,79.88
2022-11-27T19:59:06.873Z,80.26
2022-11-27T20:01:33.724Z,79.73
2022-11-27T20:04:02.033Z,79.98
2022-11-27T20:06:28.719Z,79.74
2022-11-27T20:09:00.766Z,80.06
2022-11-27T20:11:34.214Z,79.97
2022-11-27T20:14:01.839Z,80.45
2022-11-27T20:16:28.546Z,80.12
2022-11-27T20:18:56.227Z,79.94
2022-11-27T20:21:24.577Z,79.69
2022-11-27T20:23:52.961Z,80.26
2022-11-27T20:26:22.653Z,79.92
2022-11-27T20:28:50.199Z,79.64
2022-11-27T20:31:22.370Z,79.83
2022-11-27T20:33:49.257Z,80.38
2022-11-27T20:36:19.124Z,79.55
2022-11-27T20:38:45.719Z,79.97
2022-11-27T20:41:15.727Z,80.54
2022-11-27T20:43:43.130Z,80.34
2022-11-27T20:46:12.365Z,80.17
2022-11-27T20:48:39.487Z,79.92
2022-11-27T20:51:08.267Z,79.76
2022-11-27T20:53:35.108Z,79.99
2022-11-27T20:56:03.301Z,79.86
2022-11-27T20:58:29.865Z,79.93
2022-11-27T21:00:59.887Z,79.83
2022-11-27T21:03:28.689Z,80.14
2022-11-27T21:05:55.847Z,80.57
2022-11-27T21:08:23.087Z,80.34
2022-11-27T21:10:50.543Z,80.13
2022-11-27T21:13:17.444Z,79.85
2022-11-27T21:15:47.707Z,79.85
2022-11-27T21:18:14.944Z,80.35
2022-11-27T21:20:42.426Z,80.31
2022-11-27T21:23:09.123Z,79.64
2022-11-27T21:25:38.105Z,80.02
2022-11-27T21:28:04.897Z,80.36
2022-11-27T21:30:31.659Z,80.09
2022-11-27T21:32:58.320Z,79.81
2022-11-27T21:35:30.061Z,79.89
2022-11-27T21:37:58.376Z,80.08
2022-11-27T21:40:25.210Z,79.68
2022-11-27T21:42:52.195Z,80.13
2022-11-27T21:45:18.749Z,80.02
2022-11-27T21:47:45.297Z,80.42
2022-11-27T21:50:13.198Z,79.83
2022-11-27T21:52:39.806Z,80.31
2022-11-27T21:55:11.778Z,80.10
2022-11-27T21:57:38.714Z,79.85
2022-11-27T22:00:06.152Z,80.09
2022-11-27T22:02:32.749Z,80.61
2022-11-27T22:04:59.384Z,79.77
2022-11-27T22:07:25.962Z,80.33
2022-11-27T22:09:52.678Z,80.62
2022-11-27T22:12:19.330Z,80.87
2022-11-27T22:14:45.915Z,80.18
2022-11-27T22:17:12.541Z,80.74
2022-11-27T22:19:42.365Z,80.72
2022-11-27T22:22:09.050Z,80.15
2022-11-27T22:24:35.732Z,80.90
2022-11-27T22:27:02.520Z,80.36
2022-11-27T22:29:29.183Z,80.91
2022-11-27T22:31:55.737Z,80.80
2022-11-27T22:34:22.360Z,80.90
2022-11-27T22:36:49.013Z,80.16
2022-11-27T22:39:16.036Z,79.82
2022-11-27T22:41:43.063Z,80.47
2022-11-27T22:44:14.070Z,80.17
2022-11-27T22:46:42.222Z,80.52
2022-11-27T22:49:11.953Z,80.13
2022-11-27T22:51:38.701Z,80.50
2022-11-27T22:54:07.425Z,79.85
2022-11-27T22:56:34.117Z,80.71
2022-11-27T22:59:30.601Z,80.33
2022-11-27T23:01:48.680Z,80.49
2022-11-27T23:04:15.558Z,80.09
2022-11-27T23:06:42.565Z,79.71
2022-11-27T23:09:09.629Z,81.10
2022-11-27T23:11:36.233Z,79.74
2022-11-27T23:14:03.451Z,80.16
2022-11-27T23:16:30.090Z,79.94
2022-11-27T23:18:56.681Z,80.62
2022-11-27T23:21:24.949Z,80.69
2022-11-27T23:23:51.835Z,80.38
2022-11-27T23:26:21.537Z,80.44
2022-11-27T23:28:51.734Z,79.49
2022-11-27T23:31:30.367Z,80.22
2022-11-27T23:33:58.604Z,80.21
2022-11-27T23:36:25.477Z,79.58
2022-11-27T23:38:51.996Z,80.64
2022-11-27T23:41:22.319Z,80.18
2022-11-27T23:43:49.076Z,81.02
2022-11-27T23:46:18.050Z,80.92
2022-11-27T23:48:45.257Z,80.39
2022-11-27T23:51:15.065Z,80.45
2022-11-27T23:53:41.757Z,81.02
2022-11-27T23:56:11.662Z,79.89
2022-11-27T23:58:42.343Z,79.96
